Chocorua, New Hampshire
Current Conditions -  °F | °C
As of 11:54 AM on Thursday 27 Nov 2014 (Local Time) from KIZG Reporting Station
NA  
Wind Chill: 35°   Ceiling: NA
Heat Index: 35°   Visibility: 10mi
Dew Point: 25°   Wind: 3mph
Humidity: 67%   Direction: 20°NNE
Pressure: 29.92"   Gusts: NA
Location:  43.88°N, 71.22°W
Report Text: KIZG 271654Z AUTO 02003KT 10SM 02/M04 A2992 RMK AO2 SLP138 T00171039 $
Loading
Personal Weather Stations






























Interactive Weather Map New forecast layout! Learn more

10-Day Weather Forecast

Advertisements
Track Severe Weather on mobile